Time;durP1;ratioP1;P1;durP2;ratioP2;P2;SDS_P1;SDS_P2;PMS_P1;PMS_P2;Temp;Humidity;BMP_temperature;BMP_pressure;BME280_temperature;BME280_humidity;BME280_pressure;Samples;Min_cycle;Max_cycle;Signal;HPM_P1;HPM_P2
2021/12/13 00:01:22;;;;;;;1.90;1.80;;;;;;;-3.26;82.49;97134.62;1762964;80;21497;-81
2021/12/13 00:04:18;;;;;;;2.17;2.08;;;;;;;-3.25;82.50;97138.02;1771430;80;21063;-81
2021/12/13 00:06:47;;;;;;;2.12;2.02;;;;;;;-3.26;82.52;97136.34;1777129;80;21027;-81
2021/12/13 00:09:17;;;;;;;2.10;2.00;;;;;;;-3.27;82.48;97132.98;1779207;80;21035;-81
2021/12/13 00:11:47;;;;;;;2.02;1.92;;;;;;;-3.26;82.47;97132.53;1754042;80;21004;-81
2021/12/13 00:14:21;;;;;;;2.00;1.90;;;;;;;-3.25;82.56;97136.29;1765829;80;21406;-81
2021/12/13 00:16:52;;;;;;;2.35;2.20;;;;;;;-3.25;82.69;97140.55;1761596;80;21008;-81
2021/12/13 00:19:21;;;;;;;2.15;2.05;;;;;;;-3.25;82.79;97147.73;1776381;80;21027;-81
2021/12/13 00:21:52;;;;;;;2.20;2.10;;;;;;;-3.25;82.68;97146.91;1754887;79;21102;-81
2021/12/13 00:24:27;;;;;;;1.92;1.82;;;;;;;-3.22;82.64;97143.75;1760232;80;21033;-81
2021/12/13 00:27:04;;;;;;;2.40;2.25;;;;;;;-3.21;82.60;97150.48;1753594;80;21031;-81
2021/12/13 00:29:45;;;;;;;2.10;2.00;;;;;;;-3.18;82.59;97152.03;1775608;80;21023;-81
2021/12/13 00:32:37;;;;;;;2.02;1.92;;;;;;;-3.15;82.59;97161.59;1725096;82;21022;-81
2021/12/13 00:35:08;;;;;;;2.00;1.90;;;;;;;-3.15;82.45;97167.13;1718974;81;21383;-81
2021/12/13 00:37:42;;;;;;;2.10;2.00;;;;;;;-3.18;82.59;97175.73;1741842;81;21469;-81
2021/12/13 00:40:18;;;;;;;2.10;2.00;;;;;;;-3.20;82.65;97186.43;1773395;80;21012;-81
2021/12/13 00:42:52;;;;;;;2.10;2.00;;;;;;;-3.22;82.61;97189.95;1766260;80;20995;-81
2021/12/13 00:45:18;;;;;;;2.22;2.12;;;;;;;-3.22;82.58;97193.31;1770981;79;21019;-81
2021/12/13 00:47:44;;;;;;;2.20;2.10;;;;;;;-3.24;82.66;97187.95;1765656;80;20999;-81
2021/12/13 00:50:38;;;;;;;2.10;2.00;;;;;;;-3.22;82.79;97188.23;1726544;80;21062;-81
2021/12/13 00:53:04;;;;;;;3.83;2.60;;;;;;;-3.22;82.55;97186.96;1782394;80;21012;-81
2021/12/13 00:55:32;;;;;;;2.12;2.02;;;;;;;-3.20;82.51;97189.42;1780743;80;21505;-80
2021/12/13 00:58:15;;;;;;;2.10;1.90;;;;;;;-3.22;82.35;97188.23;1779102;80;20957;-81
2021/12/13 01:00:58;;;;;;;2.17;2.08;;;;;;;-3.21;82.24;97183.97;1762945;80;21058;-81
2021/12/13 01:03:36;;;;;;;;;;;;;;;-3.19;82.27;97184.26;1768257;80;21046;-81
2021/12/13 01:06:58;;;;;;;3.10;2.80;;;;;;;-3.09;82.47;97173.19;1758465;80;20155;-81
2021/12/13 01:10:20;;;;;;;2.53;2.37;;;;;;;-3.07;82.07;97178.56;1750154;80;21103;-81
2021/12/13 01:12:47;;;;;;;2.98;2.52;;;;;;;-3.11;81.85;97177.05;1770670;79;21754;-81
2021/12/13 01:15:32;;;;;;;2.42;2.20;;;;;;;-3.16;81.78;97168.02;1737397;82;21035;-81
2021/12/13 01:18:16;;;;;;;2.30;2.10;;;;;;;-3.19;81.71;97169.01;1706907;82;21128;-81
2021/12/13 01:20:58;;;;;;;2.20;2.00;;;;;;;-3.18;81.78;97173.64;1754009;80;20984;-81
2021/12/13 01:23:16;;;;;;;2.00;1.90;;;;;;;-3.14;81.93;97182.30;1769083;80;21423;-81
2021/12/13 01:28:20;;;;;;;2.10;2.00;;;;;;;-3.06;81.89;97165.39;1758557;80;21028;-81
2021/12/13 01:30:53;;;;;;;2.35;2.15;;;;;;;-3.11;81.82;97160.52;1775634;79;21390;-81
2021/12/13 01:33:21;;;;;;;2.10;2.00;;;;;;;-3.14;81.79;97163.23;1774723;80;21048;-81
2021/12/13 01:35:51;;;;;;;2.00;1.90;;;;;;;-3.14;81.82;97159.41;1772587;80;21044;-81
2021/12/13 01:38:21;;;;;;;2.15;2.02;;;;;;;-3.14;81.93;97157.33;1759215;80;21092;-81
2021/12/13 01:40:52;;;;;;;1.97;1.87;;;;;;;-3.17;82.00;97149.86;1748287;80;21114;-81
2021/12/13 01:43:24;;;;;;;2.17;1.90;;;;;;;-3.23;82.19;97148.47;1761524;80;21000;-81
2021/12/13 01:45:54;;;;;;;2.00;1.90;;;;;;;-3.26;82.33;97146.05;1776259;80;21031;-82
2021/12/13 01:48:33;;;;;;;2.00;1.90;;;;;;;-3.29;82.45;97144.13;1779227;80;20969;-81
2021/12/13 01:51:05;;;;;;;2.00;1.90;;;;;;;-3.31;82.62;97150.56;1780006;80;21489;-81
2021/12/13 01:53:50;;;;;;;2.37;2.27;;;;;;;-3.32;82.63;97148.92;1779147;80;21434;-81
2021/12/13 01:56:43;;;;;;;1.92;1.82;;;;;;;-3.33;82.77;97148.09;1779160;80;21070;-81
2021/12/13 02:02:30;;;;;;;1.90;1.80;;;;;;;-3.35;82.86;97137.64;1779324;80;21048;-81
2021/12/13 02:05:14;;;;;;;2.20;2.00;;;;;;;-3.34;82.99;97143.09;1769466;80;21015;-81
2021/12/13 02:07:48;;;;;;;2.22;2.00;;;;;;;-3.35;83.06;97141.45;1772223;80;21118;-81
2021/12/13 02:10:19;;;;;;;2.33;2.12;;;;;;;-3.34;83.17;97137.56;1767570;80;21015;-80
2021/12/13 02:12:46;;;;;;;2.30;2.15;;;;;;;-3.33;83.18;97138.38;1773138;79;21027;-80
2021/12/13 02:17:59;;;;;;;2.25;2.15;;;;;;;-3.32;83.31;97152.73;1754092;81;21079;-80
2021/12/13 02:20:35;;;;;;;2.00;1.90;;;;;;;-3.33;83.39;97149.37;1738523;82;21118;-80
2021/12/13 02:23:01;;;;;;;2.67;2.47;;;;;;;-3.30;83.38;97145.84;1729304;82;21393;-80
2021/12/13 02:25:41;;;;;;;2.08;1.98;;;;;;;-3.24;83.63;97147.28;1729908;82;21055;-80
2021/12/13 02:28:14;;;;;;;2.00;1.90;;;;;;;-3.15;83.38;97145.06;1742221;82;21065;-80
2021/12/13 02:30:50;;;;;;;2.10;2.00;;;;;;;-3.14;83.00;97139.08;1746999;82;21018;-80
2021/12/13 02:33:21;;;;;;;2.27;2.17;;;;;;;-3.17;82.93;97134.16;1746551;81;21452;-81
2021/12/13 02:35:52;;;;;;;1.90;1.80;;;;;;;-3.12;83.15;97136.00;1740474;82;20991;-81
2021/12/13 02:38:19;;;;;;;2.02;1.92;;;;;;;-3.05;83.13;97130.17;1739423;82;21107;-81
2021/12/13 02:40:45;;;;;;;2.35;2.00;;;;;;;-3.02;82.94;97129.55;1750787;82;20988;-81
2021/12/13 02:43:13;;;;;;;2.20;2.10;;;;;;;-3.01;82.87;97129.10;1746347;82;21103;-81
2021/12/13 02:45:47;;;;;;;2.02;1.92;;;;;;;-2.97;82.81;97142.02;1734936;80;21477;-81
2021/12/13 02:48:48;;;;;;;2.10;1.90;;;;;;;-2.96;82.63;97137.30;1720362;82;21051;-81
2021/12/13 02:51:34;;;;;;;2.55;2.45;;;;;;;-2.94;82.50;97127.05;1740521;80;21509;-81
2021/12/13 02:54:18;;;;;;;1.98;1.87;;;;;;;-2.91;82.38;97132.81;1734369;82;21015;-81
2021/12/13 02:56:49;;;;;;;2.10;2.00;;;;;;;-2.92;82.09;97134.17;1739670;81;21038;-81
2021/12/13 02:59:15;;;;;;;2.37;2.27;;;;;;;-3.00;81.94;97131.20;1741020;82;21142;-80
2021/12/13 03:01:55;;;;;;;2.12;1.92;;;;;;;-3.04;81.98;97130.54;1749943;82;21095;-81
2021/12/13 03:04:24;;;;;;;2.15;2.00;;;;;;;-3.06;82.00;97132.34;1728269;81;21046;-80
2021/12/13 03:07:05;;;;;;;2.08;1.92;;;;;;;-3.09;81.96;97137.59;1735972;82;21147;-80
2021/12/13 03:09:33;;;;;;;2.77;2.00;;;;;;;-3.13;82.01;97138.62;1740488;82;21460;-80
2021/12/13 03:12:00;;;;;;;2.00;1.90;;;;;;;-3.15;82.05;97141.25;1750287;82;20999;-80
2021/12/13 03:14:29;;;;;;;2.10;2.00;;;;;;;-3.17;82.14;97141.78;1746159;82;21204;-80
2021/12/13 03:17:06;;;;;;;2.42;2.30;;;;;;;-3.18;82.34;97146.50;1744825;82;21170;-80
2021/12/13 03:19:44;;;;;;;2.08;1.98;;;;;;;-3.18;82.35;97146.50;1727604;82;21082;-80
2021/12/13 03:22:33;;;;;;;2.30;2.20;;;;;;;-3.18;82.34;97136.78;1745650;82;21105;-79
2021/12/13 03:25:41;;;;;;;3.30;2.05;;;;;;;-3.20;82.20;97131.78;1730226;82;21039;-80
2021/12/13 03:28:50;;;;;;;2.15;2.05;;;;;;;-3.23;82.26;97133.22;1735661;82;21382;-80
2021/12/13 03:31:27;;;;;;;2.08;1.98;;;;;;;-3.22;82.39;97129.77;1723485;82;21086;-80
2021/12/13 03:34:18;;;;;;;2.10;2.00;;;;;;;-3.24;82.25;97137.93;1761209;80;21067;-81
2021/12/13 03:37:04;;;;;;;2.25;2.05;;;;;;;-3.26;82.31;97135.07;1760545;80;21047;-81
2021/12/13 03:39:35;;;;;;;2.22;2.10;;;;;;;-3.24;82.42;97137.11;1765196;80;21488;-81
2021/12/13 03:42:05;;;;;;;2.22;2.05;;;;;;;-3.25;82.55;97146.45;1751741;80;21122;-81
2021/12/13 03:44:39;;;;;;;3.80;2.12;;;;;;;-3.26;82.62;97148.59;1775129;80;21451;-80
2021/12/13 03:47:11;;;;;;;2.12;2.02;;;;;;;-3.27;82.59;97146.95;1781854;80;21023;-80
2021/12/13 03:49:42;;;;;;;3.00;2.42;;;;;;;-3.26;82.65;97142.69;1772885;80;21043;-80
2021/12/13 03:52:11;;;;;;;2.30;2.10;;;;;;;-3.26;82.72;97143.96;1771689;80;21076;-80
2021/12/13 03:54:37;;;;;;;2.30;2.20;;;;;;;-3.24;82.70;97141.74;1766306;80;21012;-80
2021/12/13 03:57:04;;;;;;;2.45;2.25;;;;;;;-3.24;82.78;97134.57;1759087;80;21011;-80
2021/12/13 03:59:29;;;;;;;2.12;2.02;;;;;;;-3.24;82.81;97135.39;1775739;80;21063;-80
2021/12/13 04:02:02;;;;;;;2.10;2.00;;;;;;;-3.23;82.78;97132.39;1743944;79;21083;-80
2021/12/13 04:04:45;;;;;;;2.20;2.10;;;;;;;-3.21;82.80;97132.69;1776809;80;21082;-80
2021/12/13 04:07:18;;;;;;;2.27;2.17;;;;;;;-3.16;82.86;97125.63;1768192;80;22175;-80
2021/12/13 04:09:50;;;;;;;2.22;2.10;;;;;;;-3.11;82.81;97135.10;1759749;80;21095;-80
2021/12/13 04:12:16;;;;;;;2.00;1.90;;;;;;;-3.12;82.75;97136.45;1719222;80;21020;-80
2021/12/13 04:14:52;;;;;;;2.10;2.00;;;;;;;-3.15;82.79;97142.52;1765790;80;20980;-80
2021/12/13 04:20:15;;;;;;;2.10;2.00;;;;;;;-3.14;82.93;97153.06;1781633;80;21473;-81
2021/12/13 04:22:47;;;;;;;2.00;1.90;;;;;;;-3.14;82.90;97159.41;1728458;82;21093;-80
2021/12/13 04:25:17;;;;;;;2.58;2.37;;;;;;;-3.12;82.96;97160.16;1715512;82;21386;-81
2021/12/13 04:27:48;;;;;;;2.30;2.10;;;;;;;-3.07;83.10;97164.58;1760402;80;21063;-81
2021/12/13 04:30:25;;;;;;;2.30;2.20;;;;;;;-3.03;82.90;97167.32;1763669;80;21099;-81
2021/12/13 04:32:58;;;;;;;2.37;1.95;;;;;;;-2.97;82.92;97175.53;1778980;80;21447;-81
2021/12/13 04:35:24;;;;;;;2.45;2.15;;;;;;;-2.97;82.54;97180.16;1769215;80;21000;-81
2021/12/13 04:37:55;;;;;;;2.22;2.12;;;;;;;-2.98;82.53;97174.70;1746982;81;21558;-80
2021/12/13 04:40:28;;;;;;;2.10;2.00;;;;;;;-2.99;82.44;97179.42;1759634;79;21091;-81
2021/12/13 04:43:03;;;;;;;2.20;2.00;;;;;;;-3.03;82.45;97178.77;1760232;80;21075;-81
2021/12/13 04:45:30;;;;;;;2.55;2.25;;;;;;;-3.04;82.63;97177.12;1761468;80;21416;-81
2021/12/13 04:48:18;;;;;;;2.58;2.37;;;;;;;-3.04;82.74;97182.21;1776535;80;21389;-81
2021/12/13 04:51:10;;;;;;;2.12;2.02;;;;;;;-3.04;82.91;97180.12;1777429;80;21023;-81
2021/12/13 04:53:44;;;;;;;2.50;2.00;;;;;;;-3.04;82.87;97174.58;1748500;80;21398;-81
2021/12/13 04:56:13;;;;;;;2.10;2.00;;;;;;;-3.02;82.91;97179.13;1761807;80;21442;-81
2021/12/13 04:58:40;;;;;;;2.10;2.00;;;;;;;-3.01;82.78;97168.52;1752745;80;20984;-81
2021/12/13 05:01:10;;;;;;;2.05;1.95;;;;;;;-2.99;82.67;97169.70;1775406;80;21142;-81
2021/12/13 05:03:41;;;;;;;2.20;2.10;;;;;;;-2.97;82.62;97174.25;1780543;80;21063;-81
2021/12/13 05:06:10;;;;;;;2.17;2.05;;;;;;;-2.93;82.47;97180.39;1760710;80;21020;-81
2021/12/13 05:08:43;;;;;;;2.30;2.20;;;;;;;-2.92;82.28;97180.77;1773074;80;21135;-80
2021/12/13 05:11:09;;;;;;;2.27;2.10;;;;;;;-2.93;82.24;97177.85;1747986;80;21059;-81
2021/12/13 05:13:44;;;;;;;2.30;2.20;;;;;;;-2.88;82.14;97177.61;1748757;80;21104;-80
2021/12/13 05:16:10;;;;;;;2.33;2.22;;;;;;;-2.89;81.86;97172.16;1777357;80;20984;-81
2021/12/13 05:18:50;;;;;;;2.20;2.10;;;;;;;-2.88;81.75;97175.89;1766679;80;20980;-81
2021/12/13 05:21:30;;;;;;;2.40;2.20;;;;;;;-2.91;81.50;97172.69;1766537;80;21078;-81
2021/12/13 05:24:00;;;;;;;2.10;2.00;;;;;;;-2.96;81.52;97175.89;1761950;80;21016;-80
2021/12/13 05:26:39;;;;;;;2.22;2.12;;;;;;;-2.95;81.59;97175.81;1780771;80;21389;-81
2021/12/13 05:29:25;;;;;;;2.50;2.40;;;;;;;-2.89;81.79;97174.70;1777951;79;20996;-81
2021/12/13 05:31:53;;;;;;;2.10;2.00;;;;;;;-2.91;81.51;97181.59;1749654;80;21071;-81
2021/12/13 05:34:19;;;;;;;2.30;2.10;;;;;;;-2.98;81.54;97177.70;1780446;80;21071;-81
2021/12/13 05:36:55;;;;;;;3.27;2.02;;;;;;;-2.99;81.62;97183.69;1758767;80;21004;-81
2021/12/13 05:39:21;;;;;;;2.08;1.98;;;;;;;-3.02;81.66;97182.95;1754573;80;21179;-81
2021/12/13 05:42:01;;;;;;;2.50;2.30;;;;;;;-3.04;81.60;97196.64;1733924;80;21101;-81
2021/12/13 05:44:33;;;;;;;2.20;2.10;;;;;;;-3.08;81.56;97190.91;1765734;80;20999;-80
2021/12/13 05:47:03;;;;;;;2.58;1.98;;;;;;;-3.11;81.50;97190.21;1779201;80;21115;-80
2021/12/13 05:49:37;;;;;;;2.40;2.00;;;;;;;-3.11;81.58;97185.95;1759506;80;21457;-80
2021/12/13 05:52:14;;;;;;;2.37;2.10;;;;;;;-3.11;81.58;97188.94;1765460;80;21390;-80
2021/12/13 05:54:46;;;;;;;2.40;2.30;;;;;;;-3.10;81.68;97193.12;1767302;80;21004;-80
2021/12/13 05:57:20;;;;;;;2.67;2.33;;;;;;;-3.08;82.03;97198.98;1764178;80;21038;-80
2021/12/13 06:00:09;;;;;;;2.27;2.10;;;;;;;-3.04;82.32;97188.56;1769296;80;21370;-80
2021/12/13 06:03:05;;;;;;;2.60;2.40;;;;;;;-2.99;82.69;97187.05;1774836;80;21037;-80
2021/12/13 06:05:42;;;;;;;2.20;2.10;;;;;;;-2.92;83.10;97188.84;1765138;80;21067;-80
2021/12/13 06:08:15;;;;;;;2.45;2.25;;;;;;;-2.87;83.50;97189.42;1773874;80;21099;-80
2021/12/13 06:10:51;;;;;;;2.22;2.12;;;;;;;-2.79;83.89;97195.73;1771212;80;21108;-80
2021/12/13 06:13:50;;;;;;;2.55;2.35;;;;;;;-2.72;84.10;97191.98;1777404;80;21008;-80
2021/12/13 06:16:29;;;;;;;2.60;2.40;;;;;;;-2.63;84.30;97203.84;1767045;80;21024;-80
2021/12/13 06:18:59;;;;;;;;;;;;;;;-2.54;84.67;97201.64;1727425;80;21048;-80
2021/12/13 06:21:49;;;;;;;2.67;2.47;;;;;;;-2.48;84.88;97198.77;1754506;80;20342;-80
2021/12/13 06:24:19;;;;;;;2.87;2.67;;;;;;;-2.42;85.07;97199.73;1766586;80;21490;-80
2021/12/13 06:26:45;;;;;;;4.92;3.80;;;;;;;-2.35;85.28;97195.13;1741955;80;21054;-80
2021/12/13 06:29:11;;;;;;;3.05;2.40;;;;;;;-2.26;85.41;97197.64;1760252;80;21118;-80
2021/12/13 06:31:43;;;;;;;2.62;2.40;;;;;;;-2.20;85.55;97201.11;1768379;80;21087;-79
2021/12/13 06:34:13;;;;;;;2.37;2.27;;;;;;;-2.12;85.57;97203.63;1769458;80;21038;-80
2021/12/13 06:36:47;;;;;;;2.17;2.08;;;;;;;-2.02;85.65;97205.66;1774628;80;21108;-80
2021/12/13 06:39:20;;;;;;;2.58;2.37;;;;;;;-1.94;85.67;97209.89;1755920;80;21095;-80
2021/12/13 06:41:53;;;;;;;4.22;2.95;;;;;;;-1.86;85.85;97214.91;1772747;80;21071;-80
2021/12/13 06:44:33;;;;;;;2.58;2.33;;;;;;;-1.77;85.52;97214.05;1759128;80;20980;-80
2021/12/13 06:47:07;;;;;;;2.50;2.30;;;;;;;-1.70;85.33;97217.88;1768642;80;21422;-80
2021/12/13 06:49:48;;;;;;;3.00;2.80;;;;;;;-1.63;85.17;97222.98;1765933;80;21095;-80
2021/12/13 06:52:21;;;;;;;2.72;2.52;;;;;;;-1.56;85.12;97221.75;1777441;80;21015;-80
2021/12/13 06:55:04;;;;;;;2.67;2.47;;;;;;;-1.57;84.85;97218.84;1753580;80;21083;-80
2021/12/13 06:57:54;;;;;;;2.98;2.55;;;;;;;-1.57;84.77;97217.56;1769503;80;21059;-80
2021/12/13 07:00:28;;;;;;;3.10;2.80;;;;;;;-1.60;84.74;97218.56;1771809;79;21032;-81
2021/12/13 07:03:04;;;;;;;3.90;2.70;;;;;;;-1.57;84.82;97223.94;1747966;81;21043;-80
2021/12/13 07:05:38;;;;;;;3.10;2.80;;;;;;;-1.53;84.79;97228.77;1758344;80;21075;-80
2021/12/13 07:08:19;;;;;;;2.80;2.60;;;;;;;-1.50;84.58;97220.13;1775607;80;20992;-80
2021/12/13 07:10:56;;;;;;;3.15;2.62;;;;;;;-1.45;84.58;97227.53;1774274;80;21011;-79
2021/12/13 07:13:33;;;;;;;2.83;2.60;;;;;;;-1.41;84.47;97228.53;1775903;80;20992;-80
2021/12/13 07:16:16;;;;;;;2.80;2.60;;;;;;;-1.33;84.33;97236.55;1780313;80;21059;-80
2021/12/13 07:19:18;;;;;;;2.65;2.40;;;;;;;-1.30;84.07;97240.23;1772972;80;21098;-80
2021/12/13 07:21:44;;;;;;;2.60;2.40;;;;;;;-1.23;84.00;97249.61;1736830;81;21048;-80
2021/12/13 07:24:13;;;;;;;3.60;2.37;;;;;;;-1.17;83.64;97254.80;1753646;80;21000;-81
2021/12/13 07:26:53;;;;;;;2.92;2.60;;;;;;;-1.14;83.54;97255.89;1778809;80;21004;-80
2021/12/13 07:29:23;;;;;;;2.77;2.58;;;;;;;-1.09;83.59;97261.12;1774942;80;21062;-80
2021/12/13 07:32:29;;;;;;;2.80;2.60;;;;;;;-1.02;83.61;97262.39;1773975;80;21043;-81
2021/12/13 07:35:13;;;;;;;2.60;2.40;;;;;;;-0.98;83.28;97272.80;1745289;80;21026;-80
2021/12/13 07:37:59;;;;;;;7.20;5.58;;;;;;;-0.98;82.99;97275.36;1766929;80;21079;-80
2021/12/13 07:40:46;;;;;;;7.55;3.55;;;;;;;-0.96;82.89;97273.99;1772544;80;21024;-80
2021/12/13 07:43:29;;;;;;;3.33;2.95;;;;;;;-0.89;83.01;97279.09;1742454;82;21068;-80
2021/12/13 07:46:05;;;;;;;5.12;4.00;;;;;;;-0.79;83.30;97280.20;1754872;80;21009;-80
2021/12/13 07:48:41;;;;;;;15.00;10.10;;;;;;;-0.72;82.92;97286.58;1773247;80;21032;-80
2021/12/13 07:51:13;;;;;;;25.17;16.73;;;;;;;-0.72;82.50;97291.69;1748176;81;21425;-80
2021/12/13 07:54:03;;;;;;;31.27;25.02;;;;;;;-0.70;82.03;97284.75;1776441;80;21051;-80
2021/12/13 07:56:40;;;;;;;28.62;22.67;;;;;;;-0.66;81.98;97289.22;1779727;80;20980;-80
2021/12/13 07:59:11;;;;;;;31.30;19.37;;;;;;;-0.60;81.91;97290.15;1774397;80;21032;-80
2021/12/13 08:01:56;;;;;;;20.77;13.43;;;;;;;-0.55;81.74;97288.59;1766127;80;21406;-80
2021/12/13 08:04:42;;;;;;;28.52;18.05;;;;;;;-0.48;81.87;97288.61;1773576;80;21083;-80
2021/12/13 08:07:18;;;;;;;21.60;16.57;;;;;;;-0.42;81.69;97294.16;1775787;80;21142;-80
2021/12/13 08:10:13;;;;;;;27.73;19.73;;;;;;;-0.32;81.70;97299.09;1779961;80;21095;-80
2021/12/13 08:12:49;;;;;;;25.85;16.40;;;;;;;-0.26;81.66;97303.00;1752987;80;21111;-80
2021/12/13 08:15:21;;;;;;;110.97;52.15;;;;;;;-0.17;81.68;97308.81;1761430;80;21060;-80
2021/12/13 08:17:55;;;;;;;89.58;45.92;;;;;;;-0.12;81.31;97309.38;1756427;80;21011;-80
2021/12/13 08:20:26;;;;;;;28.77;19.52;;;;;;;0.03;81.51;97312.73;1770155;80;21047;-80
2021/12/13 08:22:54;;;;;;;25.20;15.53;;;;;;;0.17;81.64;97313.17;1755793;80;21418;-80
2021/12/13 08:25:26;;;;;;;48.75;26.75;;;;;;;0.28;81.71;97314.59;1763290;79;21039;-79
2021/12/13 08:28:03;;;;;;;61.33;34.35;;;;;;;0.37;81.49;97313.20;1771107;80;21024;-80
2021/12/13 08:30:47;;;;;;;72.20;35.90;;;;;;;0.48;81.17;97311.59;1779173;80;21090;-80
2021/12/13 08:33:26;;;;;;;63.70;34.78;;;;;;;0.59;80.90;97314.30;1748597;80;21035;-80
2021/12/13 08:36:15;;;;;;;64.92;36.20;;;;;;;0.71;80.54;97319.56;1758941;80;21106;-80
2021/12/13 08:38:55;;;;;;;42.13;27.00;;;;;;;0.80;80.36;97322.80;1766536;80;21513;-80
2021/12/13 08:41:27;;;;;;;41.45;27.40;;;;;;;0.84;80.81;97323.80;1748050;80;21079;-80
2021/12/13 08:44:14;;;;;;;44.03;27.98;;;;;;;0.90;80.37;97328.98;1772554;79;21023;-79
2021/12/13 08:46:56;;;;;;;35.48;21.50;;;;;;;0.96;80.28;97331.59;1777750;80;21103;-80
2021/12/13 08:49:42;;;;;;;34.03;18.67;;;;;;;1.02;79.51;97329.47;1753796;80;21080;-80
2021/12/13 08:52:19;;;;;;;35.38;20.48;;;;;;;1.04;78.86;97334.03;1764766;80;21083;-80
2021/12/13 08:54:54;;;;;;;20.72;13.58;;;;;;;1.08;78.19;97335.46;1774350;80;21051;-80
2021/12/13 08:57:53;;;;;;;22.85;14.10;;;;;;;1.14;78.37;97331.70;1779948;79;22130;-80
2021/12/13 09:00:32;;;;;;;18.65;13.00;;;;;;;1.16;77.64;97336.26;1767358;79;21063;-80
2021/12/13 09:03:20;;;;;;;17.55;12.13;;;;;;;1.16;77.58;97329.86;1760816;80;21001;-80
2021/12/13 09:06:25;;;;;;;20.65;12.70;;;;;;;1.18;77.44;97334.41;1745771;80;21024;-80
2021/12/13 09:09:09;;;;;;;38.83;16.25;;;;;;;1.19;77.41;97333.03;1753686;80;22015;-80
2021/12/13 09:12:01;;;;;;;31.70;19.60;;;;;;;1.23;77.28;97331.55;1761477;80;21012;-80
2021/12/13 09:14:38;;;;;;;38.83;22.65;;;;;;;1.24;77.50;97329.34;1761315;80;21031;-80
2021/12/13 09:17:22;;;;;;;39.60;21.52;;;;;;;1.30;77.59;97334.05;1748624;80;21031;-80
2021/12/13 09:19:57;;;;;;;40.10;21.25;;;;;;;1.29;77.83;97331.95;1758917;80;21044;-80
2021/12/13 09:22:36;;;;;;;44.00;23.45;;;;;;;1.28;77.84;97331.59;1773828;80;21020;-80
2021/12/13 09:25:10;;;;;;;45.63;24.37;;;;;;;1.29;77.88;97329.39;1751582;79;21024;-80
2021/12/13 09:27:57;;;;;;;47.30;24.52;;;;;;;1.32;77.91;97327.93;1763857;80;21456;-80
2021/12/13 09:30:58;;;;;;;42.95;23.57;;;;;;;1.34;77.83;97334.23;1748546;80;21302;-80
2021/12/13 09:33:34;;;;;;;31.93;18.52;;;;;;;1.40;77.79;97329.97;1754417;80;21001;-80
2021/12/13 09:36:13;;;;;;;23.00;13.08;;;;;;;1.52;76.99;97324.04;1768465;80;21091;-80
2021/12/13 09:39:00;;;;;;;17.40;10.60;;;;;;;1.71;76.43;97318.03;1740828;80;21139;-80
2021/12/13 09:41:48;;;;;;;19.80;12.33;;;;;;;1.82;76.05;97310.91;1763552;80;21028;-80
2021/12/13 09:44:24;;;;;;;19.95;12.60;;;;;;;1.96;75.87;97313.81;1761597;80;21000;-81
2021/12/13 09:47:09;;;;;;;21.68;14.43;;;;;;;2.01;75.63;97311.73;1746174;79;21126;-80
2021/12/13 09:50:01;;;;;;;17.73;11.53;;;;;;;2.07;75.29;97307.45;1764934;80;21031;-80
2021/12/13 09:52:38;;;;;;;17.05;11.85;;;;;;;2.09;74.59;97307.70;1758465;80;21126;-80
2021/12/13 09:55:28;;;;;;;16.65;11.55;;;;;;;2.11;75.25;97314.00;1763200;80;21390;-80
2021/12/13 09:58:10;;;;;;;10.23;5.87;;;;;;;2.19;75.62;97310.45;1754168;79;21080;-80
2021/12/13 10:00:57;;;;;;;10.93;6.37;;;;;;;2.28;74.49;97307.27;1750815;80;21004;-80
2021/12/13 10:03:31;;;;;;;15.00;7.90;;;;;;;2.39;74.31;97302.17;1769212;80;21094;-80
2021/12/13 10:06:02;;;;;;;22.40;10.20;;;;;;;2.48;74.05;97298.62;1774111;80;21000;-81
2021/12/13 10:08:32;;;;;;;16.48;8.38;;;;;;;2.52;74.05;97297.47;1756553;80;21043;-81
2021/12/13 10:11:04;;;;;;;23.40;11.75;;;;;;;2.51;74.05;97299.21;1757465;80;21098;-80
2021/12/13 10:13:33;;;;;;;17.05;8.83;;;;;;;2.43;73.31;97295.54;1774531;80;21024;-80
2021/12/13 10:16:07;;;;;;;13.13;6.28;;;;;;;2.40;73.12;97303.00;1774939;80;21043;-80
2021/12/13 10:18:37;;;;;;;10.20;6.05;;;;;;;2.30;73.43;97302.84;1759743;79;21130;-80
2021/12/13 10:21:28;;;;;;;9.38;6.37;;;;;;;2.20;72.43;97306.97;1772307;80;20992;-81
2021/12/13 10:23:59;;;;;;;19.65;11.90;;;;;;;2.11;72.85;97307.59;1774777;80;21011;-80
2021/12/13 10:26:30;;;;;;;8.40;6.03;;;;;;;2.02;72.94;97313.38;1779527;80;21008;-80
2021/12/13 10:28:56;;;;;;;10.90;7.10;;;;;;;1.97;73.63;97318.83;1767483;80;21078;-81
2021/12/13 10:31:33;;;;;;;9.90;5.78;;;;;;;1.96;73.86;97317.19;1763982;80;21483;-81
2021/12/13 10:34:03;;;;;;;11.30;6.80;;;;;;;1.96;74.25;97318.47;1768044;80;21023;-79
2021/12/13 10:36:28;;;;;;;14.47;8.10;;;;;;;1.94;74.11;97308.76;1764136;80;21071;-79
2021/12/13 10:38:59;;;;;;;12.35;7.33;;;;;;;1.97;74.33;97306.47;1777421;79;20964;-80
2021/12/13 10:41:36;;;;;;;15.35;8.40;;;;;;;2.01;74.33;97298.92;1762329;80;21461;-81
2021/12/13 10:44:07;;;;;;;17.40;9.73;;;;;;;1.99;74.53;97293.91;1747372;80;20996;-81
2021/12/13 10:46:37;;;;;;;14.38;8.68;;;;;;;2.02;74.41;97295.43;1755419;80;21092;-80
2021/12/13 10:49:08;;;;;;;13.03;8.20;;;;;;;2.00;74.17;97300.66;1778815;80;21031;-81
2021/12/13 10:51:38;;;;;;;11.90;7.22;;;;;;;2.00;74.26;97304.97;1779619;80;21456;-80
2021/12/13 10:54:13;;;;;;;11.30;6.92;;;;;;;1.98;74.10;97299.14;1768825;80;21003;-81
2021/12/13 10:56:47;;;;;;;13.40;7.55;;;;;;;1.97;74.12;97306.47;1768741;80;21067;-81
2021/12/13 10:59:17;;;;;;;14.07;8.18;;;;;;;1.90;73.86;97307.80;1773478;79;21012;-80
2021/12/13 11:01:48;;;;;;;16.07;9.00;;;;;;;1.86;73.95;97309.77;1763878;80;20999;-80
2021/12/13 11:04:22;;;;;;;13.53;8.28;;;;;;;1.79;73.88;97309.84;1760518;80;21393;-80
2021/12/13 11:06:48;;;;;;;15.58;8.25;;;;;;;1.75;74.08;97309.20;1770205;80;21485;-80
2021/12/13 11:09:19;;;;;;;13.95;8.28;;;;;;;1.75;74.29;97308.38;1758881;80;21032;-80
2021/12/13 11:12:06;;;;;;;13.03;7.80;;;;;;;1.75;74.15;97317.35;1772217;80;21019;-80
2021/12/13 11:14:35;;;;;;;12.65;7.80;;;;;;;1.73;73.93;97313.62;1779316;80;21066;-80
2021/12/13 11:17:08;;;;;;;13.80;9.03;;;;;;;1.73;73.74;97313.62;1773909;80;20989;-80
2021/12/13 11:19:38;;;;;;;12.80;8.53;;;;;;;1.72;73.79;97307.31;1753281;79;21051;-79
2021/12/13 11:22:11;;;;;;;15.80;8.80;;;;;;;1.74;73.88;97312.69;1778181;80;21012;-79
2021/12/13 11:24:41;;;;;;;16.02;10.25;;;;;;;1.77;73.89;97304.79;1750718;80;21408;-79
2021/12/13 11:27:15;;;;;;;15.83;9.25;;;;;;;1.85;73.84;97306.03;1761702;79;21027;-80
2021/12/13 11:29:41;;;;;;;15.10;9.65;;;;;;;2.00;74.10;97313.48;1780497;80;20992;-80
2021/12/13 11:32:41;;;;;;;14.05;9.45;;;;;;;2.11;74.33;97308.88;1779249;80;21409;-80
2021/12/13 11:35:22;;;;;;;16.20;9.00;;;;;;;2.16;74.46;97309.39;1745428;80;21493;-79
2021/12/13 11:38:34;;;;;;;13.70;7.92;;;;;;;2.19;74.42;97310.92;1762458;80;21004;-79
2021/12/13 11:41:49;;;;;;;12.53;8.58;;;;;;;2.23;74.62;97311.05;1757377;80;21103;-80
2021/12/13 11:44:56;;;;;;;14.20;8.15;;;;;;;2.26;74.59;97308.27;1733100;80;21097;-80
2021/12/13 11:48:10;;;;;;;14.18;8.65;;;;;;;2.23;74.87;97298.23;1735238;80;21460;-80
2021/12/13 11:51:30;;;;;;;18.73;11.05;;;;;;;2.27;74.94;97297.91;1774193;80;21107;-80
2021/12/13 11:54:33;;;;;;;23.52;14.13;;;;;;;2.38;75.17;97295.41;1778673;80;21023;-80
2021/12/13 11:57:43;;;;;;;24.92;15.18;;;;;;;2.50;74.78;97297.58;1778233;80;21064;-80
2021/12/13 12:00:17;;;;;;;29.92;18.20;;;;;;;2.59;74.05;97294.34;1779884;80;21040;-80
2021/12/13 12:03:21;;;;;;;29.52;16.80;;;;;;;2.58;73.14;97297.02;1760673;80;21112;-80
2021/12/13 12:06:15;;;;;;;27.25;18.73;;;;;;;2.65;73.27;97293.10;1747470;79;21004;-80
2021/12/13 12:09:24;;;;;;;33.90;19.87;;;;;;;2.71;72.14;97297.78;1765648;80;21433;-80
2021/12/13 12:12:10;;;;;;;36.30;23.22;;;;;;;2.73;71.98;97289.50;1779125;80;21143;-81
2021/12/13 12:14:36;;;;;;;43.65;25.72;;;;;;;2.77;71.92;97296.07;1774613;80;20976;-81
2021/12/13 12:17:04;;;;;;;51.33;31.02;;;;;;;2.79;71.63;97294.67;1758673;80;21055;-81
2021/12/13 12:19:37;;;;;;;54.23;33.65;;;;;;;2.78;70.98;97290.01;1773918;80;20995;-81
2021/12/13 12:22:17;;;;;;;55.20;33.23;;;;;;;2.76;70.84;97294.41;1772721;80;21015;-81
2021/12/13 12:24:50;;;;;;;54.65;34.55;;;;;;;2.73;70.41;97284.83;1763175;80;21425;-81
2021/12/13 12:27:26;;;;;;;55.55;35.17;;;;;;;2.74;70.52;97288.57;1767506;80;21012;-81
2021/12/13 12:29:57;;;;;;;52.90;34.67;;;;;;;2.75;70.00;97282.50;1780051;80;21382;-80
2021/12/13 12:32:29;;;;;;;58.23;37.98;;;;;;;2.75;70.37;97282.50;1778950;79;21505;-81